createdAt,value
2022-11-14T00:03:29.530Z,18
2022-11-14T00:08:45.939Z,16
2022-11-14T00:14:02.493Z,15
2022-11-14T00:19:18.916Z,15
2022-11-14T00:24:35.374Z,15
2022-11-14T00:29:51.816Z,14
2022-11-14T00:35:08.269Z,13
2022-11-14T00:40:24.717Z,14
2022-11-14T00:45:41.190Z,15
2022-11-14T00:50:57.613Z,16
2022-11-14T00:56:14.104Z,16
2022-11-14T01:01:30.537Z,17
2022-11-14T01:06:46.999Z,17
2022-11-14T01:12:03.774Z,14
2022-11-14T01:17:20.262Z,15
2022-11-14T01:22:36.754Z,14
2022-11-14T01:27:53.159Z,15
2022-11-14T01:33:09.647Z,18
2022-11-14T01:39:33.439Z,16
2022-11-14T01:44:49.887Z,16
2022-11-14T01:50:06.351Z,16
2022-11-14T01:55:22.843Z,15
2022-11-14T02:00:39.435Z,13
2022-11-14T02:05:55.880Z,15
2022-11-14T02:11:12.346Z,14
2022-11-14T02:16:28.780Z,13
2022-11-14T02:21:45.253Z,14
2022-11-14T02:27:01.898Z,12
2022-11-14T02:32:18.330Z,15
2022-11-14T02:37:34.779Z,13
2022-11-14T02:42:51.223Z,10
2022-11-14T02:48:07.662Z,11
2022-11-14T02:53:24.160Z,11
2022-11-14T02:58:40.651Z,11
2022-11-14T03:03:57.091Z,11
2022-11-14T03:09:13.528Z,10
2022-11-14T03:14:29.967Z,10
2022-11-14T03:19:46.461Z,10
2022-11-14T03:25:02.931Z,8
2022-11-14T03:30:19.370Z,9
2022-11-14T03:35:35.895Z,10
2022-11-14T03:40:52.384Z,9
2022-11-14T03:46:08.798Z,9
2022-11-14T03:51:25.218Z,10
2022-11-14T03:56:41.686Z,12
2022-11-14T04:01:58.098Z,9
2022-11-14T04:07:14.656Z,9
2022-11-14T04:12:31.088Z,10
2022-11-14T04:17:47.514Z,10
2022-11-14T04:23:03.955Z,12
2022-11-14T04:28:20.441Z,11
2022-11-14T04:33:36.877Z,9
2022-11-14T04:38:53.345Z,9
2022-11-14T04:44:09.789Z,9
2022-11-14T04:49:26.283Z,9
2022-11-14T04:54:42.765Z,11
2022-11-14T04:59:59.169Z,12
2022-11-14T05:05:15.650Z,11
2022-11-14T05:10:32.147Z,10
2022-11-14T05:15:48.562Z,12
2022-11-14T05:21:05.028Z,12
2022-11-14T05:26:22.027Z,15
2022-11-14T05:31:38.466Z,11
2022-11-14T05:36:54.934Z,13
2022-11-14T05:42:11.436Z,12
2022-11-14T05:47:27.918Z,13
2022-11-14T05:52:44.363Z,14
2022-11-14T05:58:01.882Z,12
2022-11-14T06:03:18.352Z,12
2022-11-14T06:08:34.781Z,11
2022-11-14T06:13:51.237Z,9
2022-11-14T06:19:07.705Z,11
2022-11-14T06:24:24.149Z,12
2022-11-14T06:29:40.686Z,15
2022-11-14T06:34:57.178Z,12
2022-11-14T06:40:13.760Z,15
2022-11-14T06:45:30.241Z,14
2022-11-14T06:50:46.658Z,14
2022-11-14T06:56:03.099Z,14
2022-11-14T07:01:19.593Z,13
2022-11-14T07:06:36.057Z,12
2022-11-14T07:11:53.285Z,14
2022-11-14T07:17:09.760Z,14
2022-11-14T07:22:26.224Z,13
2022-11-14T07:27:42.742Z,14
2022-11-14T07:32:59.170Z,14
2022-11-14T07:38:15.586Z,13
2022-11-14T07:43:32.030Z,12
2022-11-14T07:48:48.467Z,10
2022-11-14T07:54:04.892Z,12
2022-11-14T07:59:21.410Z,9
2022-11-14T08:04:37.874Z,9
2022-11-14T08:09:54.367Z,10
2022-11-14T08:15:10.824Z,10
2022-11-14T08:20:27.440Z,11
2022-11-14T08:25:43.744Z,10
2022-11-14T08:31:00.144Z,10
2022-11-14T08:36:16.612Z,9
2022-11-14T08:41:33.075Z,10
2022-11-14T08:46:49.543Z,10
2022-11-14T08:52:05.992Z,10
2022-11-14T08:57:22.443Z,12
2022-11-14T09:02:38.971Z,10
2022-11-14T09:07:55.437Z,12
2022-11-14T09:13:11.869Z,11
2022-11-14T09:18:28.687Z,12
2022-11-14T09:23:44.739Z,11
2022-11-14T09:29:01.792Z,9
2022-11-14T09:34:18.234Z,10
2022-11-14T09:39:34.668Z,11
2022-11-14T09:44:51.097Z,9
2022-11-14T09:50:07.579Z,11
2022-11-14T09:55:23.993Z,10
2022-11-14T10:00:40.498Z,10
2022-11-14T10:05:56.877Z,9
2022-11-14T10:11:13.365Z,10
2022-11-14T10:16:29.800Z,9
2022-11-14T10:21:46.338Z,12
2022-11-14T10:27:02.844Z,11
2022-11-14T10:32:19.296Z,11
2022-11-14T10:37:35.845Z,13
2022-11-14T10:42:52.248Z,12
2022-11-14T10:48:08.644Z,14
2022-11-14T10:53:25.101Z,14
2022-11-14T10:58:48.437Z,14
2022-11-14T11:03:58.069Z,13
2022-11-14T11:09:14.521Z,13
2022-11-14T11:14:30.931Z,11
2022-11-14T11:19:47.376Z,12
2022-11-14T11:25:04.772Z,13
2022-11-14T11:30:21.209Z,14
2022-11-14T11:35:37.645Z,13
2022-11-14T11:40:54.100Z,14
2022-11-14T11:46:10.531Z,15
2022-11-14T11:51:27.020Z,15
2022-11-14T11:56:43.436Z,13
2022-11-14T12:01:59.913Z,14
2022-11-14T12:07:16.402Z,16
2022-11-14T12:12:32.727Z,13
2022-11-14T12:17:49.250Z,14
2022-11-14T12:23:05.630Z,13
2022-11-14T12:28:22.099Z,14
2022-11-14T12:33:38.536Z,13
2022-11-14T12:38:55.005Z,15
2022-11-14T12:44:11.538Z,13
2022-11-14T12:49:31.495Z,14
2022-11-14T12:54:44.438Z,13
2022-11-14T13:00:02.612Z,16
2022-11-14T13:05:19.577Z,14
2022-11-14T13:10:36.017Z,14
2022-11-14T13:15:52.438Z,14
2022-11-14T13:21:08.857Z,15
2022-11-14T13:26:25.285Z,15
2022-11-14T13:31:41.707Z,15
2022-11-14T13:36:58.207Z,14
2022-11-14T13:42:14.666Z,17
2022-11-14T13:47:31.097Z,17
2022-11-14T13:52:47.592Z,17
2022-11-14T13:58:04.062Z,17
2022-11-14T14:03:20.471Z,16
2022-11-14T14:08:36.912Z,17
2022-11-14T14:13:55.448Z,16
2022-11-14T14:19:09.834Z,13
2022-11-14T14:24:26.346Z,14
2022-11-14T14:29:42.779Z,14
2022-11-14T14:34:59.213Z,16
2022-11-14T14:40:15.670Z,14
2022-11-14T14:45:32.109Z,12
2022-11-14T14:50:48.567Z,13
2022-11-14T14:56:05.065Z,14
2022-11-14T15:01:21.632Z,14
2022-11-14T15:06:37.986Z,14
2022-11-14T15:11:54.404Z,14
2022-11-14T15:17:11.163Z,14
2022-11-14T15:22:27.656Z,11
2022-11-14T15:27:44.099Z,12
2022-11-14T15:33:04.026Z,13
2022-11-14T15:38:42.965Z,12
2022-11-14T15:43:36.945Z,16
2022-11-14T15:48:53.432Z,18
2022-11-14T15:54:09.915Z,21
2022-11-14T15:59:26.090Z,20
2022-11-14T16:04:47.304Z,18
2022-11-14T16:09:58.976Z,20
2022-11-14T16:15:15.469Z,24
2022-11-14T16:20:35.599Z,23
2022-11-14T16:25:48.632Z,23
2022-11-14T16:31:04.891Z,25
2022-11-14T16:36:21.359Z,26
2022-11-14T16:41:37.810Z,25
2022-11-14T16:46:54.297Z,25
2022-11-14T16:52:10.844Z,26
2022-11-14T16:57:27.879Z,32
2022-11-14T17:02:44.934Z,31
2022-11-14T17:08:01.909Z,30
2022-11-14T17:13:24.193Z,29
2022-11-14T17:18:38.417Z,29
2022-11-14T17:25:06.806Z,25
2022-11-14T17:30:23.275Z,28
2022-11-14T17:35:39.731Z,30
2022-11-14T17:40:55.990Z,32
2022-11-14T17:46:15.633Z,31
2022-11-14T17:51:28.995Z,33
2022-11-14T17:56:49.642Z,35
2022-11-14T18:02:01.960Z,34
2022-11-14T18:07:18.543Z,33
2022-11-14T18:12:34.971Z,32
2022-11-14T18:17:51.504Z,34
2022-11-14T18:23:07.960Z,32
2022-11-14T18:28:24.418Z,34
2022-11-14T18:33:40.877Z,36
2022-11-14T18:38:57.382Z,36
2022-11-14T18:44:13.623Z,36
2022-11-14T18:49:30.149Z,34
2022-11-14T18:54:46.586Z,33
2022-11-14T19:00:03.656Z,33
2022-11-14T19:05:20.184Z,30
2022-11-14T19:10:36.625Z,30
2022-11-14T19:15:53.122Z,32
2022-11-14T19:21:09.588Z,35
2022-11-14T19:26:26.062Z,34
2022-11-14T19:31:42.565Z,37
2022-11-14T19:37:00.720Z,36
2022-11-14T19:42:15.606Z,38
2022-11-14T19:47:31.852Z,34
2022-11-14T19:52:48.855Z,35
2022-11-14T19:58:05.313Z,33
2022-11-14T20:03:22.385Z,34
2022-11-14T20:08:38.628Z,32
2022-11-14T20:13:55.451Z,31
2022-11-14T20:19:12.521Z,31
2022-11-14T20:24:29.035Z,30
2022-11-14T20:29:46.110Z,31
2022-11-14T20:35:02.637Z,31
2022-11-14T20:40:19.159Z,32
2022-11-14T20:45:36.140Z,31
2022-11-14T20:50:52.673Z,31
2022-11-14T20:56:09.120Z,31
2022-11-14T21:01:25.618Z,29
2022-11-14T21:06:41.751Z,32
2022-11-14T21:11:58.305Z,34
2022-11-14T21:17:14.829Z,31
2022-11-14T21:22:31.024Z,34
2022-11-14T21:27:47.482Z,33
2022-11-14T21:33:03.972Z,34
2022-11-14T21:38:21.051Z,34
2022-11-14T21:43:37.549Z,32
2022-11-14T21:48:54.591Z,34
2022-11-14T21:54:11.105Z,34
2022-11-14T21:59:27.555Z,36
2022-11-14T22:04:44.127Z,35
2022-11-14T22:10:05.204Z,36
2022-11-14T22:15:21.703Z,34
2022-11-14T22:20:38.239Z,35
2022-11-14T22:25:54.721Z,32
2022-11-14T22:31:11.202Z,33
2022-11-14T22:36:28.205Z,34
2022-11-14T22:41:44.707Z,32
2022-11-14T22:47:01.180Z,32
2022-11-14T22:52:17.625Z,28
2022-11-14T22:57:34.119Z,30
2022-11-14T23:02:50.611Z,34
2022-11-14T23:08:07.132Z,34
2022-11-14T23:13:23.641Z,34
2022-11-14T23:18:40.133Z,31
2022-11-14T23:23:56.622Z,31
2022-11-14T23:29:13.086Z,31
2022-11-14T23:34:29.798Z,30
2022-11-14T23:39:46.289Z,30
2022-11-14T23:45:02.803Z,29
2022-11-14T23:50:19.294Z,30
2022-11-14T23:55:35.464Z,32
